Time;durP1;ratioP1;P1;durP2;ratioP2;P2;SDS_P1;SDS_P2;PMS_P1;PMS_P2;Temp;Humidity;BMP_temperature;BMP_pressure;BME280_temperature;BME280_humidity;BME280_pressure;Samples;Min_cycle;Max_cycle;Signal;HPM_P1;HPM_P2
2024/02/28 00:02:13;;;;;;;5.43;3.53;;;7.90;64.70;;;;;;4979962;28;21282;-79
2024/02/28 00:04:41;;;;;;;7.28;3.90;;;7.90;64.70;;;;;;4968418;28;20512;-79
2024/02/28 00:07:08;;;;;;;5.40;3.75;;;7.90;64.70;;;;;;4979849;28;20030;-78
2024/02/28 00:09:34;;;;;;;8.20;3.95;;;7.80;64.70;;;;;;4981040;28;20184;-78
2024/02/28 00:12:00;;;;;;;6.75;3.97;;;7.80;64.80;;;;;;4980345;28;20124;-79
2024/02/28 00:14:26;;;;;;;6.68;3.72;;;7.80;64.70;;;;;;4967489;28;20037;-79
2024/02/28 00:16:52;;;;;;;5.40;3.15;;;7.80;64.60;;;;;;4968010;28;20027;-77
2024/02/28 00:19:20;;;;;;;6.60;3.75;;;7.80;64.80;;;;;;4981711;28;20097;-77
2024/02/28 00:21:46;;;;;;;8.40;4.32;;;7.80;64.80;;;;;;4979712;28;20444;-78
2024/02/28 00:24:12;;;;;;;6.07;3.72;;;7.80;64.80;;;;;;4978960;28;20039;-78
2024/02/28 00:26:42;;;;;;;7.20;3.83;;;7.80;64.70;;;;;;4980421;28;20053;-79
2024/02/28 00:29:09;;;;;;;6.57;3.92;;;7.80;64.80;;;;;;4979712;28;20571;-79
2024/02/28 00:31:35;;;;;;;7.15;3.40;;;7.80;64.90;;;;;;4980202;28;20034;-79
2024/02/28 00:34:02;;;;;;;6.75;3.47;;;7.80;64.80;;;;;;4979273;28;20043;-79
2024/02/28 00:36:28;;;;;;;7.60;3.78;;;7.80;64.80;;;;;;4981729;28;20034;-77
2024/02/28 00:38:54;;;;;;;5.97;3.58;;;7.80;65.10;;;;;;4983102;28;20053;-78
2024/02/28 00:41:20;;;;;;;4.82;3.63;;;7.80;64.80;;;;;;4978865;28;20039;-79
2024/02/28 00:43:46;;;;;;;4.93;3.65;;;7.80;64.80;;;;;;4978868;28;20038;-79
2024/02/28 00:46:12;;;;;;;6.60;3.25;;;7.80;64.80;;;;;;4951241;28;20070;-78
2024/02/28 00:48:38;;;;;;;5.20;3.13;;;7.70;64.90;;;;;;4979909;28;20049;-78
2024/02/28 00:51:05;;;;;;;5.60;3.20;;;7.70;64.90;;;;;;4967471;28;20030;-78
2024/02/28 00:53:31;;;;;;;4.97;3.50;;;7.70;64.70;;;;;;4977671;28;20042;-77
2024/02/28 00:55:57;;;;;;;7.75;3.42;;;7.70;64.80;;;;;;4986414;28;20049;-78
2024/02/28 00:58:23;;;;;;;5.75;3.60;;;7.70;64.70;;;;;;4982648;28;20363;-77
2024/02/28 01:00:49;;;;;;;7.90;3.97;;;7.70;64.80;;;;;;4988432;28;20049;-76
2024/02/28 01:03:15;;;;;;;4.80;3.45;;;7.70;64.90;;;;;;4984865;28;20452;-76
2024/02/28 01:05:41;;;;;;;5.72;3.33;;;7.70;65.10;;;;;;4984228;28;20050;-77
2024/02/28 01:08:07;;;;;;;8.90;4.00;;;7.70;66.00;;;;;;4984936;28;20026;-77
2024/02/28 01:10:34;;;;;;;5.88;3.38;;;7.70;66.80;;;;;;4982938;28;20123;-77
2024/02/28 01:13:00;;;;;;;7.20;3.80;;;7.70;68.20;;;;;;4982329;28;20504;-76
2024/02/28 01:15:26;;;;;;;6.25;3.65;;;7.70;68.30;;;;;;4985616;28;20030;-75
2024/02/28 01:17:52;;;;;;;6.43;3.80;;;7.70;68.30;;;;;;4985172;28;20122;-77
2024/02/28 01:20:18;;;;;;;5.70;3.97;;;7.70;68.60;;;;;;4965151;28;20046;-77
2024/02/28 01:22:44;;;;;;;4.90;3.53;;;7.70;68.00;;;;;;4982666;28;20034;-77
2024/02/28 01:25:10;;;;;;;6.90;3.60;;;7.60;68.70;;;;;;4987019;28;20038;-76
2024/02/28 01:27:36;;;;;;;8.77;4.25;;;7.60;68.20;;;;;;4952856;28;20169;-76
2024/02/28 01:30:02;;;;;;;6.72;4.05;;;7.60;68.50;;;;;;4986636;28;20042;-78
2024/02/28 01:32:30;;;;;;;7.25;3.42;;;7.60;68.00;;;;;;4982792;28;20110;-77
2024/02/28 01:34:56;;;;;;;6.65;4.00;;;7.60;68.00;;;;;;4986931;28;20069;-76
2024/02/28 01:37:22;;;;;;;7.78;3.90;;;7.60;68.70;;;;;;4954793;28;20070;-77
2024/02/28 01:39:48;;;;;;;7.28;3.90;;;7.60;68.30;;;;;;4966555;28;20045;-77
2024/02/28 01:42:17;;;;;;;4.90;3.35;;;7.60;68.70;;;;;;4983242;28;20065;-76
2024/02/28 01:44:46;;;;;;;5.53;3.60;;;7.50;68.20;;;;;;4981312;28;21299;-76
2024/02/28 01:47:13;;;;;;;8.77;3.90;;;7.60;67.90;;;;;;4984409;28;20085;-76
2024/02/28 01:49:41;;;;;;;7.68;4.07;;;7.50;67.90;;;;;;4983137;28;20034;-76
2024/02/28 01:52:09;;;;;;;6.18;3.58;;;7.50;68.30;;;;;;4982828;28;20061;-76
2024/02/28 01:54:35;;;;;;;4.93;3.38;;;7.50;68.20;;;;;;4985706;28;20062;-75
2024/02/28 01:57:02;;;;;;;6.00;3.72;;;7.50;67.90;;;;;;4953964;28;20042;-78
2024/02/28 01:59:29;;;;;;;5.88;3.63;;;7.50;68.30;;;;;;4985006;28;20056;-76
2024/02/28 02:01:55;;;;;;;7.22;3.45;;;7.50;68.50;;;;;;4982412;28;20038;-77
2024/02/28 02:04:21;;;;;;;7.30;3.83;;;7.50;68.20;;;;;;4969801;28;20034;-76
2024/02/28 02:06:48;;;;;;;5.78;3.67;;;7.50;68.40;;;;;;4963728;28;20100;-75
2024/02/28 02:09:16;;;;;;;5.60;3.85;;;7.50;67.70;;;;;;4980299;28;20063;-75
2024/02/28 02:11:42;;;;;;;5.75;3.53;;;7.50;68.10;;;;;;4981239;28;20043;-76
2024/02/28 02:14:08;;;;;;;6.88;3.90;;;7.50;67.90;;;;;;4983359;28;20145;-76
2024/02/28 02:16:34;;;;;;;8.13;3.65;;;7.50;67.90;;;;;;4970637;28;20900;-76
2024/02/28 02:19:00;;;;;;;6.72;3.60;;;7.50;68.20;;;;;;4984944;28;20056;-75
2024/02/28 02:21:40;;;;;;;7.05;3.42;;;7.40;68.00;;;;;;4983120;28;20155;-76
2024/02/28 02:24:06;;;;;;;5.35;3.50;;;7.50;68.00;;;;;;4980524;28;20527;-76
2024/02/28 02:26:32;;;;;;;6.32;3.70;;;7.50;68.20;;;;;;4983057;28;20046;-75
2024/02/28 02:28:58;;;;;;;5.45;4.05;;;7.40;68.70;;;;;;4968693;28;20037;-77
2024/02/28 02:31:24;;;;;;;5.22;3.42;;;7.40;68.10;;;;;;4981674;28;20029;-76
2024/02/28 02:33:50;;;;;;;5.20;3.72;;;7.40;68.20;;;;;;4982181;28;20070;-75
2024/02/28 02:36:16;;;;;;;7.50;4.38;;;7.40;68.00;;;;;;4982371;28;20037;-76
2024/02/28 02:38:42;;;;;;;7.20;4.47;;;7.40;68.30;;;;;;4985401;28;20429;-76
2024/02/28 02:41:08;;;;;;;5.18;3.33;;;7.40;67.70;;;;;;4981754;28;20030;-76
2024/02/28 02:43:34;;;;;;;5.60;3.40;;;7.40;68.30;;;;;;4981078;28;20058;-77
2024/02/28 02:46:00;;;;;;;8.07;3.55;;;7.40;67.80;;;;;;4968681;28;20577;-76
2024/02/28 02:48:26;;;;;;;4.15;3.55;;;7.40;68.00;;;;;;4981622;28;20034;-76
2024/02/28 02:50:53;;;;;;;9.25;3.90;;;7.40;68.30;;;;;;4981706;28;20031;-75
2024/02/28 02:53:19;;;;;;;5.35;3.55;;;7.40;68.00;;;;;;4981576;28;20466;-76
2024/02/28 02:55:45;;;;;;;10.20;4.22;;;7.40;68.00;;;;;;4984537;28;20034;-76
2024/02/28 02:58:11;;;;;;;5.85;3.08;;;7.40;67.90;;;;;;4983970;28;20035;-75
2024/02/28 03:00:37;;;;;;;5.70;3.78;;;7.30;67.10;;;;;;4996234;28;20104;-76
2024/02/28 03:03:03;;;;;;;5.40;2.92;;;7.30;67.40;;;;;;4968037;28;22221;-76
2024/02/28 03:05:29;;;;;;;6.75;3.42;;;7.40;68.00;;;;;;4970441;28;20030;-76
2024/02/28 03:07:55;;;;;;;5.43;4.07;;;7.30;67.90;;;;;;4991894;28;20555;-76
2024/02/28 03:10:21;;;;;;;6.72;3.55;;;7.30;68.00;;;;;;4972876;28;20037;-76
2024/02/28 03:12:47;;;;;;;6.03;3.38;;;7.30;67.80;;;;;;4980425;28;20513;-77
2024/02/28 03:15:13;;;;;;;9.23;4.10;;;7.30;67.70;;;;;;4983821;28;21014;-76
2024/02/28 03:17:39;;;;;;;6.55;3.67;;;7.30;67.50;;;;;;4965129;28;20054;-75
2024/02/28 03:20:07;;;;;;;7.25;3.90;;;7.30;67.50;;;;;;4981182;28;20049;-76
2024/02/28 03:22:33;;;;;;;6.18;3.58;;;7.30;67.20;;;;;;4982899;28;20038;-76
2024/02/28 03:24:59;;;;;;;7.95;3.85;;;7.30;67.20;;;;;;4979018;28;20584;-76
2024/02/28 03:27:25;;;;;;;5.78;3.67;;;7.30;67.00;;;;;;4968146;28;20042;-76
2024/02/28 03:29:51;;;;;;;7.03;3.78;;;7.30;66.70;;;;;;4978473;28;20047;-75
2024/02/28 03:32:17;;;;;;;8.05;4.38;;;7.30;67.80;;;;;;4980628;28;20045;-77
2024/02/28 03:34:43;;;;;;;6.85;4.30;;;7.30;67.20;;;;;;4965472;28;20037;-76
2024/02/28 03:37:09;;;;;;;5.30;3.60;;;7.30;66.90;;;;;;4984182;28;20038;-75
2024/02/28 03:39:35;;;;;;;6.03;3.70;;;7.20;66.70;;;;;;4982010;28;20145;-77
2024/02/28 03:42:01;;;;;;;5.00;3.60;;;7.30;67.30;;;;;;4983832;28;20086;-78
2024/02/28 03:44:27;;;;;;;6.15;3.50;;;7.30;67.00;;;;;;4981638;28;20062;-76
2024/02/28 03:46:53;;;;;;;9.60;4.05;;;7.20;67.00;;;;;;4982708;28;20030;-76
2024/02/28 03:49:19;;;;;;;8.23;4.25;;;7.30;67.50;;;;;;4981755;28;20100;-77
2024/02/28 03:51:45;;;;;;;7.93;4.10;;;7.30;68.30;;;;;;4981286;28;20042;-76
2024/02/28 03:54:11;;;;;;;9.35;4.50;;;7.20;68.40;;;;;;4980833;28;20034;-76
2024/02/28 03:56:37;;;;;;;8.32;4.70;;;7.30;67.40;;;;;;4980306;28;20031;-76
2024/02/28 03:59:03;;;;;;;6.40;3.80;;;7.20;67.20;;;;;;4981324;28;20038;-77
2024/02/28 04:01:30;;;;;;;7.35;4.30;;;7.30;67.10;;;;;;4963439;28;20038;-75
2024/02/28 04:03:56;;;;;;;6.53;3.90;;;7.20;66.70;;;;;;4981637;28;20042;-77
2024/02/28 04:06:22;;;;;;;6.07;4.28;;;7.20;67.30;;;;;;4978708;28;20046;-75
2024/02/28 04:08:48;;;;;;;5.80;3.83;;;7.20;66.60;;;;;;4981246;28;20042;-77
2024/02/28 04:11:14;;;;;;;5.90;3.92;;;7.20;66.50;;;;;;4967404;28;20041;-77
2024/02/28 04:13:40;;;;;;;7.30;4.00;;;7.20;66.50;;;;;;4981940;28;20026;-77
2024/02/28 04:16:08;;;;;;;7.30;4.10;;;7.20;67.40;;;;;;4978269;28;20125;-78
2024/02/28 04:18:34;;;;;;;6.43;3.97;;;7.20;66.90;;;;;;4980157;28;20050;-77
2024/02/28 04:21:00;;;;;;;5.00;3.22;;;7.20;66.90;;;;;;4980775;28;20089;-77
2024/02/28 04:23:26;;;;;;;5.50;3.72;;;7.20;67.00;;;;;;4978567;28;20038;-77
2024/02/28 04:25:52;;;;;;;6.25;3.92;;;7.20;66.30;;;;;;4980723;28;20027;-76
2024/02/28 04:28:18;;;;;;;5.70;3.70;;;7.20;66.30;;;;;;4979263;28;20600;-79
2024/02/28 04:30:44;;;;;;;9.80;4.05;;;7.20;66.80;;;;;;4985975;28;20127;-78
2024/02/28 04:33:10;;;;;;;5.53;4.00;;;7.20;66.30;;;;;;4986866;28;21475;-77
2024/02/28 04:35:36;;;;;;;7.13;4.07;;;7.20;66.80;;;;;;4981420;28;20034;-76
2024/02/28 04:38:20;;;;;;;6.35;4.22;;;7.20;67.30;;;;;;4983499;28;20081;-76
2024/02/28 04:41:38;;;;;;;8.98;3.58;;;7.20;66.00;;;;;;4986376;28;20069;-75
2024/02/28 04:44:04;;;;;;;7.15;3.70;;;7.20;65.70;;;;;;4984507;28;20030;-78
2024/02/28 04:46:30;;;;;;;6.35;3.83;;;7.20;65.90;;;;;;4984487;28;20334;-78
2024/02/28 04:48:56;;;;;;;9.30;4.25;;;7.20;66.00;;;;;;4984180;28;20050;-79
2024/02/28 04:51:22;;;;;;;8.52;4.53;;;7.20;65.70;;;;;;4984345;28;20506;-79
2024/02/28 04:53:48;;;;;;;8.95;4.00;;;7.20;65.70;;;;;;4970928;28;20484;-76
2024/02/28 04:56:14;;;;;;;8.02;3.90;;;7.20;66.00;;;;;;4984120;28;20034;-78
2024/02/28 04:58:40;;;;;;;8.50;4.25;;;7.20;65.90;;;;;;4984105;28;20062;-79
2024/02/28 05:01:06;;;;;;;6.70;3.35;;;7.20;66.00;;;;;;4983091;28;20497;-75
2024/02/28 05:03:32;;;;;;;7.65;3.67;;;7.20;65.60;;;;;;4984196;28;20485;-78
2024/02/28 05:05:58;;;;;;;8.00;4.40;;;7.30;66.30;;;;;;4983623;28;20054;-76
2024/02/28 05:08:26;;;;;;;7.43;3.72;;;7.20;66.60;;;;;;4984590;28;20036;-76
2024/02/28 05:10:52;;;;;;;6.32;3.95;;;7.20;67.60;;;;;;4984099;28;20041;-76
2024/02/28 05:13:18;;;;;;;8.55;4.45;;;7.30;67.90;;;;;;4983399;28;20039;-75
2024/02/28 05:15:44;;;;;;;14.57;4.80;;;7.30;68.10;;;;;;4982548;28;20034;-76
2024/02/28 05:18:10;;;;;;;7.25;5.00;;;7.30;68.10;;;;;;4981148;28;20228;-77
2024/02/28 05:20:36;;;;;;;12.57;5.20;;;7.30;67.80;;;;;;4982563;28;20125;-77
2024/02/28 05:23:02;;;;;;;9.02;5.05;;;7.30;67.80;;;;;;4966315;28;20035;-77
2024/02/28 05:25:28;;;;;;;10.27;5.10;;;7.30;67.80;;;;;;4982914;28;20121;-77
2024/02/28 05:27:54;;;;;;;9.55;4.93;;;7.40;67.80;;;;;;4983376;28;20069;-77
2024/02/28 05:30:20;;;;;;;6.57;4.25;;;7.40;67.50;;;;;;4983193;28;20043;-77
2024/02/28 05:32:46;;;;;;;7.88;4.13;;;7.40;67.20;;;;;;4981964;28;20042;-78
2024/02/28 05:35:14;;;;;;;7.75;4.43;;;7.50;67.10;;;;;;4983493;28;20069;-76
2024/02/28 05:37:40;;;;;;;6.03;4.05;;;7.50;66.50;;;;;;4982862;28;20031;-77
2024/02/28 05:40:07;;;;;;;6.85;4.05;;;7.60;66.20;;;;;;4984958;28;20038;-77
2024/02/28 05:42:33;;;;;;;7.13;3.83;;;7.70;66.20;;;;;;4981780;28;20105;-77
2024/02/28 05:44:59;;;;;;;5.32;3.80;;;7.80;66.30;;;;;;4983150;28;20434;-76
2024/02/28 05:47:25;;;;;;;7.10;3.58;;;7.80;66.30;;;;;;4982859;28;20037;-76
2024/02/28 05:49:51;;;;;;;7.60;3.13;;;7.90;66.40;;;;;;4983809;28;20034;-76
2024/02/28 05:52:17;;;;;;;6.80;3.95;;;8.00;65.90;;;;;;4982913;28;20099;-77
2024/02/28 05:54:43;;;;;;;4.97;3.60;;;8.10;65.60;;;;;;4983579;28;20045;-77
2024/02/28 05:57:09;;;;;;;7.70;4.72;;;8.20;65.50;;;;;;4984160;28;20042;-77
2024/02/28 05:59:35;;;;;;;6.95;3.97;;;8.20;66.30;;;;;;4983894;28;20358;-76
2024/02/28 06:02:01;;;;;;;8.77;4.55;;;8.30;65.70;;;;;;4981888;28;20035;-79
2024/02/28 06:04:27;;;;;;;6.70;4.15;;;8.40;65.90;;;;;;4983437;28;20427;-80
2024/02/28 06:06:53;;;;;;;7.85;4.25;;;8.40;66.10;;;;;;4952891;28;20031;-78
2024/02/28 06:09:19;;;;;;;6.32;4.07;;;8.50;66.00;;;;;;4983934;28;20035;-80
2024/02/28 06:11:45;;;;;;;7.18;3.78;;;8.60;66.00;;;;;;4981385;28;20030;-82
2024/02/28 06:14:11;;;;;;;7.45;3.97;;;8.70;66.20;;;;;;4966833;28;20091;-82
2024/02/28 06:16:37;;;;;;;6.65;3.92;;;8.80;66.20;;;;;;4965979;28;20489;-82
2024/02/28 06:19:03;;;;;;;6.18;3.22;;;8.80;66.20;;;;;;4982040;28;20051;-81
2024/02/28 06:21:29;;;;;;;5.60;3.80;;;8.90;65.70;;;;;;4969458;28;20034;-81
2024/02/28 06:23:55;;;;;;;8.13;4.00;;;9.00;65.40;;;;;;4982490;28;20145;-81
2024/02/28 06:26:21;;;;;;;4.45;3.20;;;9.10;65.40;;;;;;4984279;28;20129;-81
2024/02/28 06:28:47;;;;;;;6.97;3.78;;;9.20;65.00;;;;;;4983047;28;20034;-81
2024/02/28 06:31:15;;;;;;;6.15;3.83;;;9.20;64.90;;;;;;4969957;28;20381;-81
2024/02/28 06:33:42;;;;;;;6.80;3.28;;;9.30;64.80;;;;;;4981676;28;20125;-80
2024/02/28 06:36:08;;;;;;;4.90;3.33;;;9.40;64.60;;;;;;4982302;28;20061;-81
2024/02/28 06:38:36;;;;;;;5.60;3.45;;;9.40;64.50;;;;;;4981847;28;20062;-80
2024/02/28 06:41:05;;;;;;;4.55;2.75;;;9.50;64.40;;;;;;4968897;28;20117;-79
2024/02/28 06:43:37;;;;;;;4.68;3.28;;;9.60;64.30;;;;;;4981430;28;20031;-79
2024/02/28 06:46:04;;;;;;;5.43;2.97;;;9.70;64.10;;;;;;4982612;28;20031;-82
2024/02/28 06:48:30;;;;;;;6.15;3.45;;;9.80;64.20;;;;;;4950639;28;20034;-84
2024/02/28 06:50:57;;;;;;;4.00;3.13;;;9.80;64.00;;;;;;4981581;28;20195;-83
2024/02/28 06:53:23;;;;;;;7.13;3.58;;;9.90;64.00;;;;;;4981130;28;20096;-85
2024/02/28 06:55:49;;;;;;;3.92;3.22;;;10.00;63.90;;;;;;4965255;28;20027;-80
2024/02/28 06:58:15;;;;;;;4.07;2.65;;;10.10;63.90;;;;;;4968292;28;20106;-80
2024/02/28 07:00:41;;;;;;;5.15;3.40;;;10.10;63.70;;;;;;4979975;28;20031;-81
2024/02/28 07:03:07;;;;;;;4.18;2.97;;;10.20;63.70;;;;;;4968550;28;20037;-82
2024/02/28 07:05:33;;;;;;;6.05;3.67;;;10.20;63.60;;;;;;4981317;28;20082;-82
2024/02/28 07:08:00;;;;;;;5.53;3.22;;;10.30;63.60;;;;;;4965389;28;20481;-81
2024/02/28 07:10:26;;;;;;;4.60;2.95;;;10.40;63.60;;;;;;4979807;28;20042;-82
2024/02/28 07:12:52;;;;;;;3.75;3.03;;;10.40;63.70;;;;;;4982258;28;20701;-83
2024/02/28 07:15:21;;;;;;;5.60;3.05;;;10.50;63.60;;;;;;4981944;28;20042;-82
2024/02/28 07:17:47;;;;;;;6.53;3.25;;;10.70;63.50;;;;;;4980570;28;20205;-82
2024/02/28 07:20:14;;;;;;;4.72;3.33;;;10.70;63.30;;;;;;4983125;28;20081;-80
2024/02/28 07:22:42;;;;;;;7.22;3.55;;;10.80;63.30;;;;;;4980121;28;20036;-81
2024/02/28 07:25:08;;;;;;;7.93;4.20;;;10.90;63.00;;;;;;4983916;28;20041;-81
2024/02/28 07:27:34;;;;;;;7.72;4.70;;;11.00;63.40;;;;;;4981704;28;20045;-80
2024/02/28 07:30:06;;;;;;;7.10;4.63;;;11.10;63.60;;;;;;4981071;28;20871;-82
2024/02/28 07:32:34;;;;;;;6.90;4.68;;;11.10;63.70;;;;;;4981661;28;20034;-81
2024/02/28 07:35:03;;;;;;;6.55;4.47;;;11.20;63.70;;;;;;4963080;28;20124;-80
2024/02/28 07:37:29;;;;;;;7.22;4.57;;;11.20;63.60;;;;;;4979377;28;20038;-79
2024/02/28 07:39:55;;;;;;;6.53;3.95;;;11.30;63.70;;;;;;4977283;28;20033;-82
2024/02/28 07:42:21;;;;;;;5.40;3.72;;;11.30;63.60;;;;;;4980723;28;20185;-82
2024/02/28 07:44:49;;;;;;;5.15;3.78;;;11.40;63.70;;;;;;4964527;28;20034;-82
2024/02/28 07:47:15;;;;;;;5.25;3.10;;;11.40;63.70;;;;;;4951474;28;20508;-83
2024/02/28 07:49:41;;;;;;;4.80;3.30;;;11.40;64.00;;;;;;4982196;28;20038;-82
2024/02/28 07:52:07;;;;;;;5.63;3.33;;;11.50;64.70;;;;;;4968246;28;20902;-83
2024/02/28 07:54:33;;;;;;;4.68;3.15;;;11.60;64.50;;;;;;4979847;28;20081;-80
2024/02/28 07:56:59;;;;;;;6.32;3.50;;;11.60;64.60;;;;;;4977966;28;20035;-83
2024/02/28 07:59:25;;;;;;;5.18;3.17;;;11.60;64.60;;;;;;4962273;28;20404;-82
2024/02/28 08:01:52;;;;;;;4.38;3.00;;;11.70;64.20;;;;;;4981029;28;20078;-80
2024/02/28 08:04:18;;;;;;;4.95;3.05;;;11.70;64.30;;;;;;4979451;28;20027;-80
2024/02/28 08:06:44;;;;;;;4.05;3.00;;;11.80;64.10;;;;;;4979737;28;20501;-80
2024/02/28 08:09:10;;;;;;;3.97;3.42;;;11.80;63.90;;;;;;4979501;28;20041;-83
2024/02/28 08:11:36;;;;;;;6.18;3.55;;;11.90;64.00;;;;;;4966683;28;20605;-82
2024/02/28 08:14:03;;;;;;;4.97;3.15;;;11.90;63.90;;;;;;4967244;28;20133;-82
2024/02/28 08:16:29;;;;;;;6.18;3.55;;;11.90;64.00;;;;;;4984026;28;20058;-82
2024/02/28 08:18:55;;;;;;;4.40;3.05;;;12.00;64.00;;;;;;4980245;28;20091;-80
2024/02/28 08:21:21;;;;;;;4.75;2.97;;;12.00;63.90;;;;;;4967921;28;20046;-82
2024/02/28 08:23:47;;;;;;;4.25;2.70;;;12.00;63.90;;;;;;4964876;28;20038;-82
2024/02/28 08:26:13;;;;;;;5.03;2.97;;;12.10;63.70;;;;;;4979761;28;20038;-82
2024/02/28 08:28:39;;;;;;;4.28;2.72;;;12.10;63.50;;;;;;4952386;28;20130;-82
2024/02/28 08:31:05;;;;;;;4.15;2.78;;;12.10;63.40;;;;;;4981046;28;20691;-81
2024/02/28 08:33:31;;;;;;;5.15;3.08;;;12.20;63.60;;;;;;4966944;28;20034;-82
2024/02/28 08:35:57;;;;;;;4.65;3.00;;;12.20;63.80;;;;;;4978941;28;20089;-82
2024/02/28 08:38:23;;;;;;;5.47;3.33;;;12.20;63.50;;;;;;4966478;28;20034;-81
2024/02/28 08:40:49;;;;;;;5.28;3.30;;;12.20;63.40;;;;;;4983683;28;20042;-83
2024/02/28 08:43:15;;;;;;;3.58;3.03;;;12.30;63.30;;;;;;4966497;28;20057;-82
2024/02/28 08:45:41;;;;;;;4.40;3.22;;;12.30;63.30;;;;;;4966648;28;20352;-83
2024/02/28 08:48:07;;;;;;;5.03;3.50;;;12.30;63.40;;;;;;4950925;28;20122;-83
2024/02/28 08:50:33;;;;;;;6.45;3.10;;;12.30;63.10;;;;;;4978541;28;20043;-83
2024/02/28 08:52:59;;;;;;;3.92;2.88;;;12.40;63.20;;;;;;4978320;28;20504;-83
2024/02/28 08:55:25;;;;;;;5.97;3.30;;;12.30;62.90;;;;;;4964017;28;20030;-83
2024/02/28 08:57:51;;;;;;;3.47;2.75;;;12.30;62.80;;;;;;4965316;28;21957;-82
2024/02/28 09:00:18;;;;;;;4.53;3.00;;;12.30;62.70;;;;;;4975534;28;20089;-83
2024/02/28 09:02:44;;;;;;;4.30;3.13;;;12.40;62.60;;;;;;4966197;28;20086;-82
2024/02/28 09:05:10;;;;;;;4.30;2.95;;;12.30;62.50;;;;;;4970352;28;20034;-82
2024/02/28 09:07:36;;;;;;;4.88;3.22;;;12.30;62.40;;;;;;4980274;28;20064;-83
2024/02/28 09:10:06;;;;;;;4.07;2.92;;;12.30;62.30;;;;;;4962700;28;20133;-83
2024/02/28 09:12:32;;;;;;;4.80;3.20;;;12.30;62.10;;;;;;4950430;28;20046;-83
2024/02/28 09:14:58;;;;;;;5.75;3.55;;;12.30;62.40;;;;;;4979270;28;20445;-83
2024/02/28 09:17:24;;;;;;;6.13;3.35;;;12.30;61.90;;;;;;4969571;28;20034;-83
2024/02/28 09:19:51;;;;;;;3.92;3.22;;;12.30;61.80;;;;;;4983102;28;20050;-82
2024/02/28 09:22:17;;;;;;;4.00;2.85;;;12.30;61.90;;;;;;4970322;28;20044;-84
2024/02/28 09:24:43;;;;;;;5.18;3.13;;;12.30;62.00;;;;;;4985130;28;20031;-83
2024/02/28 09:27:09;;;;;;;5.88;3.70;;;12.30;61.50;;;;;;4980054;28;20070;-84
2024/02/28 09:29:36;;;;;;;7.18;4.47;;;12.40;60.70;;;;;;4984465;28;20073;-87
2024/02/28 09:32:02;;;;;;;11.32;5.72;;;12.50;58.10;;;;;;4982224;28;20042;-82
2024/02/28 09:34:28;;;;;;;9.75;5.90;;;12.40;53.10;;;;;;4975156;28;20096;-83
2024/02/28 09:36:54;;;;;;;9.10;6.43;;;12.20;51.20;;;;;;4985859;28;20509;-80
2024/02/28 09:39:21;;;;;;;12.63;6.80;;;12.00;50.30;;;;;;4970575;28;20034;-84
2024/02/28 09:41:50;;;;;;;9.02;5.68;;;11.90;49.90;;;;;;4983369;28;20574;-82
2024/02/28 09:44:18;;;;;;;13.32;6.20;;;11.70;50.00;;;;;;4981671;28;20053;-83
2024/02/28 09:46:44;;;;;;;10.60;6.22;;;11.50;50.00;;;;;;4981998;28;20421;-86
2024/02/28 09:49:10;;;;;;;15.00;6.80;;;11.40;50.00;;;;;;4984714;28;20070;-86
2024/02/28 09:51:37;;;;;;;10.30;6.30;;;11.30;50.10;;;;;;4953680;28;20452;-84
2024/02/28 09:54:04;;;;;;;9.60;6.57;;;11.20;50.60;;;;;;4986531;28;20509;-85
2024/02/28 09:56:30;;;;;;;10.88;6.65;;;11.10;50.20;;;;;;4969505;28;20037;-85
2024/02/28 09:58:56;;;;;;;15.25;6.90;;;11.00;50.70;;;;;;4981184;28;20034;-82
2024/02/28 10:01:23;;;;;;;14.25;6.38;;;10.90;50.50;;;;;;4966695;28;20050;-82
2024/02/28 10:03:53;;;;;;;16.65;6.55;;;10.80;50.50;;;;;;4982566;28;20046;-83
2024/02/28 10:06:20;;;;;;;12.65;6.93;;;10.70;50.60;;;;;;4964453;28;20057;-83
2024/02/28 10:08:47;;;;;;;10.57;5.82;;;10.60;50.60;;;;;;4954173;28;20394;-83
2024/02/28 10:11:23;;;;;;;13.57;6.70;;;10.50;50.70;;;;;;4983613;28;20088;-84
2024/02/28 10:13:50;;;;;;;10.45;6.45;;;10.50;50.80;;;;;;4982483;28;20034;-84
2024/02/28 10:16:16;;;;;;;10.05;6.57;;;10.40;51.10;;;;;;4980816;28;20449;-83
2024/02/28 10:18:43;;;;;;;13.93;7.13;;;10.30;51.20;;;;;;4986164;28;20097;-85
2024/02/28 10:21:12;;;;;;;13.20;6.80;;;10.30;51.40;;;;;;4970259;28;20489;-83
2024/02/28 10:23:39;;;;;;;12.50;7.22;;;10.20;51.50;;;;;;4953846;28;20038;-80
2024/02/28 10:26:05;;;;;;;11.77;7.10;;;10.10;51.60;;;;;;4980506;28;20038;-83
2024/02/28 10:28:31;;;;;;;15.73;7.40;;;10.10;51.50;;;;;;4954246;28;20034;-82
2024/02/28 10:30:57;;;;;;;10.20;6.72;;;10.00;51.60;;;;;;4965097;28;20042;-83
2024/02/28 10:33:30;;;;;;;14.18;6.93;;;10.00;52.00;;;;;;4983931;28;20034;-83
2024/02/28 10:35:56;;;;;;;11.55;7.20;;;9.90;52.20;;;;;;4965167;28;20050;-82
2024/02/28 10:38:24;;;;;;;12.45;7.20;;;9.90;51.80;;;;;;4982480;28;20038;-81
2024/02/28 10:40:51;;;;;;;11.70;6.50;;;9.80;52.00;;;;;;4987251;28;20042;-84
2024/02/28 10:43:17;;;;;;;11.20;6.28;;;9.80;52.20;;;;;;4985210;28;20398;-84
2024/02/28 10:45:43;;;;;;;13.38;7.47;;;9.80;52.30;;;;;;4983040;28;20178;-83
2024/02/28 10:48:11;;;;;;;15.63;8.07;;;9.70;52.40;;;;;;4965458;28;20030;-84
2024/02/28 10:50:37;;;;;;;14.52;7.78;;;9.70;52.40;;;;;;4969912;28;20070;-84
2024/02/28 10:53:05;;;;;;;14.25;7.18;;;9.60;52.40;;;;;;4982095;28;20477;-83
2024/02/28 10:55:36;;;;;;;13.07;7.70;;;9.60;52.90;;;;;;4983414;28;20408;-84
2024/02/28 10:58:07;;;;;;;12.98;7.60;;;9.50;53.10;;;;;;4981404;28;20133;-84
2024/02/28 11:00:47;;;;;;;13.85;7.50;;;9.50;53.30;;;;;;4980469;28;20569;-83
2024/02/28 11:03:16;;;;;;;13.05;7.38;;;9.40;53.30;;;;;;4982834;28;20548;-82
2024/02/28 11:05:46;;;;;;;12.75;7.13;;;9.40;53.50;;;;;;4982291;28;20050;-84
2024/02/28 11:08:25;;;;;;;15.20;7.78;;;9.40;53.70;;;;;;4982747;28;20042;-81
2024/02/28 11:10:58;;;;;;;15.85;8.25;;;9.30;53.80;;;;;;4982083;28;20044;-82
2024/02/28 11:13:26;;;;;;;18.23;7.32;;;9.30;53.70;;;;;;4964439;28;20420;-84
2024/02/28 11:15:53;;;;;;;11.75;7.55;;;9.30;53.90;;;;;;4983852;28;20041;-82
2024/02/28 11:18:19;;;;;;;13.88;8.20;;;9.30;53.80;;;;;;4968539;28;20178;-84
2024/02/28 11:20:48;;;;;;;11.07;7.03;;;9.20;53.60;;;;;;4967386;28;20081;-83
2024/02/28 11:23:16;;;;;;;12.38;7.38;;;9.20;53.60;;;;;;4995816;28;20498;-82
2024/02/28 11:25:43;;;;;;;13.15;7.57;;;9.20;53.80;;;;;;4982442;28;20026;-83
2024/02/28 11:28:10;;;;;;;19.30;7.47;;;9.10;53.70;;;;;;4968861;28;20042;-82
2024/02/28 11:30:36;;;;;;;12.35;7.63;;;9.10;54.10;;;;;;4984494;28;20073;-82
2024/02/28 11:33:02;;;;;;;14.93;7.72;;;9.10;54.00;;;;;;4969033;28;20038;-83
2024/02/28 11:35:28;;;;;;;12.10;6.75;;;9.10;54.10;;;;;;4968642;28;20505;-83
2024/02/28 11:37:58;;;;;;;11.90;7.32;;;9.10;54.20;;;;;;4982658;28;20041;-83
2024/02/28 11:40:28;;;;;;;14.10;6.75;;;9.10;53.90;;;;;;4984461;28;20054;-83
2024/02/28 11:42:59;;;;;;;14.10;7.65;;;9.10;53.80;;;;;;4981721;28;20033;-84
2024/02/28 11:45:25;;;;;;;13.10;7.35;;;9.10;53.70;;;;;;4982829;28;20035;-84
2024/02/28 11:47:51;;;;;;;17.13;7.50;;;9.00;53.90;;;;;;4951453;28;20127;-83
2024/02/28 11:50:18;;;;;;;14.00;6.95;;;9.00;53.80;;;;;;4980511;28;20575;-82
2024/02/28 11:52:45;;;;;;;14.95;7.30;;;9.00;54.00;;;;;;4982396;28;20027;-80
2024/02/28 11:55:11;;;;;;;11.45;6.50;;;8.90;53.90;;;;;;4984870;28;20034;-79
2024/02/28 11:57:38;;;;;;;12.65;7.10;;;8.90;54.40;;;;;;4966232;28;20027;-80
2024/02/28 12:00:23;;;;;;;11.48;6.72;;;8.90;54.80;;;;;;4979783;28;20605;-81
2024/02/28 12:02:49;;;;;;;14.20;7.38;;;8.90;54.70;;;;;;4979398;28;20065;-84
2024/02/28 12:05:15;;;;;;;11.63;6.32;;;9.00;54.70;;;;;;4952682;28;20076;-85
2024/02/28 12:07:41;;;;;;;13.13;6.57;;;9.00;55.30;;;;;;4980686;28;20034;-84
2024/02/28 12:10:09;;;;;;;10.75;5.70;;;9.10;56.50;;;;;;4981833;28;20038;-83
2024/02/28 12:12:35;;;;;;;7.55;5.28;;;9.20;57.60;;;;;;4949960;28;20069;-81
2024/02/28 12:15:05;;;;;;;8.38;5.15;;;9.20;58.50;;;;;;4981481;28;20030;-82
2024/02/28 12:17:31;;;;;;;10.43;4.53;;;9.30;59.40;;;;;;4980088;28;20096;-84
2024/02/28 12:20:01;;;;;;;9.57;5.05;;;9.40;59.90;;;;;;4963216;28;20054;-83
2024/02/28 12:22:27;;;;;;;8.05;4.57;;;9.40;60.00;;;;;;4983863;28;20095;-79
2024/02/28 12:24:53;;;;;;;7.05;4.68;;;9.50;60.70;;;;;;4966196;28;20062;-79
2024/02/28 12:27:20;;;;;;;8.25;4.68;;;9.60;60.40;;;;;;4966097;28;20547;-79
2024/02/28 12:29:46;;;;;;;7.05;4.63;;;9.70;60.40;;;;;;4982333;28;20054;-78
2024/02/28 12:32:12;;;;;;;10.65;4.75;;;9.70;60.60;;;;;;4983191;28;20092;-80
2024/02/28 12:34:38;;;;;;;6.93;4.57;;;9.80;60.60;;;;;;4968196;28;20034;-79
2024/02/28 12:37:05;;;;;;;7.78;4.60;;;9.80;60.80;;;;;;4984983;28;20038;-80
2024/02/28 12:39:34;;;;;;;9.85;5.07;;;9.80;60.70;;;;;;4968231;28;20498;-80
2024/02/28 12:42:00;;;;;;;6.43;4.75;;;9.90;60.80;;;;;;4982591;28;20681;-79
2024/02/28 12:44:26;;;;;;;6.88;4.30;;;10.00;61.00;;;;;;4984516;28;20424;-79
2024/02/28 12:46:52;;;;;;;6.88;4.55;;;10.00;61.20;;;;;;4983091;28;20034;-79
2024/02/28 12:49:19;;;;;;;6.55;4.07;;;10.00;61.20;;;;;;4967094;28;20096;-80
2024/02/28 12:51:46;;;;;;;5.07;4.28;;;10.10;61.50;;;;;;4987564;28;20035;-79